sensor_id;sensor_type;location;lat;lon;timestamp;pressure;altitude;pressure_sealevel;temperature;humidity
5988;BME280;3021;51.000;6.980;2023-06-22T00:01:15;68923.25;;;23.38;100.00
5988;BME280;3021;51.000;6.980;2023-06-22T00:03:40;68922.66;;;23.38;100.00
5988;BME280;3021;51.000;6.980;2023-06-22T00:06:05;68914.63;;;23.33;100.00
5988;BME280;3021;51.000;6.980;2023-06-22T00:08:31;68911.69;;;23.30;100.00
5988;BME280;3021;51.000;6.980;2023-06-22T00:10:56;68908.19;;;23.27;100.00
5988;BME280;3021;51.000;6.980;2023-06-22T00:13:21;68907.63;;;23.27;100.00
5988;BME280;3021;51.000;6.980;2023-06-22T00:15:47;68910.53;;;23.29;100.00
5988;BME280;3021;51.000;6.980;2023-06-22T00:18:12;68919.78;;;23.35;100.00
5988;BME280;3021;51.000;6.980;2023-06-22T00:20:38;68910.66;;;23.32;100.00
5988;BME280;3021;51.000;6.980;2023-06-22T00:23:05;68914.97;;;23.28;100.00
5988;BME280;3021;51.000;6.980;2023-06-22T00:25:38;68908.31;;;23.30;100.00
5988;BME280;3021;51.000;6.980;2023-06-22T00:28:05;68909.50;;;23.31;100.00
5988;BME280;3021;51.000;6.980;2023-06-22T00:30:31;68913.47;;;23.32;100.00
5988;BME280;3021;51.000;6.980;2023-06-22T00:32:58;68915.78;;;23.34;100.00
5988;BME280;3021;51.000;6.980;2023-06-22T00:35:24;68912.88;;;23.32;100.00
5988;BME280;3021;51.000;6.980;2023-06-22T00:37:54;68914.50;;;23.30;100.00
5988;BME280;3021;51.000;6.980;2023-06-22T00:40:25;68916.38;;;23.35;100.00
5988;BME280;3021;51.000;6.980;2023-06-22T00:42:51;68912.41;;;23.34;100.00
5988;BME280;3021;51.000;6.980;2023-06-22T00:45:16;68915.78;;;23.34;100.00
5988;BME280;3021;51.000;6.980;2023-06-22T00:47:42;68916.38;;;23.35;100.00
5988;BME280;3021;51.000;6.980;2023-06-22T00:50:13;68914.63;;;23.33;100.00
5988;BME280;3021;51.000;6.980;2023-06-22T00:52:43;68918.03;;;23.34;100.00
5988;BME280;3021;51.000;6.980;2023-06-22T00:55:09;68917.53;;;23.36;100.00
5988;BME280;3021;51.000;6.980;2023-06-22T00:57:35;68912.41;;;23.34;100.00
5988;BME280;3021;51.000;6.980;2023-06-22T01:00:03;68915.78;;;23.34;100.00
5988;BME280;3021;51.000;6.980;2023-06-22T01:02:31;68922.09;;;23.37;100.00
5988;BME280;3021;51.000;6.980;2023-06-22T01:04:57;68919.88;;;23.38;100.00
5988;BME280;3021;51.000;6.980;2023-06-22T01:07:35;68923.16;;;23.36;100.00
5988;BME280;3021;51.000;6.980;2023-06-22T01:10:12;68919.88;;;23.38;100.00
5988;BME280;3021;51.000;6.980;2023-06-22T01:12:45;68917.53;;;23.36;100.00
5988;BME280;3021;51.000;6.980;2023-06-22T01:15:18;68910.06;;;23.32;100.00
5988;BME280;3021;51.000;6.980;2023-06-22T01:17:44;68918.03;;;23.34;100.00
5988;BME280;3021;51.000;6.980;2023-06-22T01:20:12;68911.13;;;23.30;100.00
5988;BME280;3021;51.000;6.980;2023-06-22T01:26:06;68907.97;;;23.22;100.00
5988;BME280;3021;51.000;6.980;2023-06-22T01:28:49;68898.88;;;23.19;100.00
5988;BME280;3021;51.000;6.980;2023-06-22T01:31:20;68900.16;;;23.23;100.00
5988;BME280;3021;51.000;6.980;2023-06-22T01:33:50;68894.31;;;23.18;100.00
5988;BME280;3021;51.000;6.980;2023-06-22T01:36:16;68898.88;;;23.19;100.00
5988;BME280;3021;51.000;6.980;2023-06-22T01:38:42;68901.78;;;23.22;100.00
5988;BME280;3021;51.000;6.980;2023-06-22T01:41:08;68893.75;;;23.17;100.00
5988;BME280;3021;51.000;6.980;2023-06-22T01:43:35;68894.78;;;23.16;100.00
5988;BME280;3021;51.000;6.980;2023-06-22T01:46:01;68885.53;;;23.10;100.00
5988;BME280;3021;51.000;6.980;2023-06-22T01:48:27;68879.69;;;23.05;100.00
5988;BME280;3021;51.000;6.980;2023-06-22T01:50:54;68883.56;;;23.03;100.00
5988;BME280;3021;51.000;6.980;2023-06-22T01:53:23;68874.47;;;23.00;100.00
5988;BME280;3021;51.000;6.980;2023-06-22T01:55:48;68876.09;;;22.99;100.00
5988;BME280;3021;51.000;6.980;2023-06-22T01:58:14;68872.59;;;22.96;100.00
5988;BME280;3021;51.000;6.980;2023-06-22T02:00:44;68868.50;;;22.92;100.00
5988;BME280;3021;51.000;6.980;2023-06-22T02:03:14;68867.34;;;22.91;100.00
5988;BME280;3021;51.000;6.980;2023-06-22T02:06:04;68872.59;;;22.96;100.00
5988;BME280;3021;51.000;6.980;2023-06-22T02:08:38;68866.88;;;22.93;100.00
5988;BME280;3021;51.000;6.980;2023-06-22T02:11:05;68866.75;;;22.91;100.00
5988;BME280;3021;51.000;6.980;2023-06-22T02:13:32;68869.09;;;22.93;100.00
5988;BME280;3021;51.000;6.980;2023-06-22T02:15:58;68869.56;;;22.91;100.00
5988;BME280;3021;51.000;6.980;2023-06-22T02:18:23;68869.56;;;22.91;100.00
5988;BME280;3021;51.000;6.980;2023-06-22T02:20:48;68861.03;;;22.88;100.00
5988;BME280;3021;51.000;6.980;2023-06-22T02:23:14;68861.03;;;22.88;100.00
5988;BME280;3021;51.000;6.980;2023-06-22T02:25:39;68863.25;;;22.88;100.00
5988;BME280;3021;51.000;6.980;2023-06-22T02:28:04;68858.59;;;22.84;100.00
5988;BME280;3021;51.000;6.980;2023-06-22T02:30:30;68853.44;;;22.82;100.00
5988;BME280;3021;51.000;6.980;2023-06-22T02:32:55;68860.34;;;22.85;100.00
5988;BME280;3021;51.000;6.980;2023-06-22T02:35:25;68861.97;;;22.84;100.00
5988;BME280;3021;51.000;6.980;2023-06-22T02:37:51;68863.97;;;22.91;100.00
5988;BME280;3021;51.000;6.980;2023-06-22T02:40:16;68863.84;;;22.88;100.00
5988;BME280;3021;51.000;6.980;2023-06-22T02:42:42;68862.66;;;22.87;100.00
5988;BME280;3021;51.000;6.980;2023-06-22T02:45:07;68857.53;;;22.85;100.00
5988;BME280;3021;51.000;6.980;2023-06-22T02:47:33;68862.66;;;22.87;100.00
5988;BME280;3021;51.000;6.980;2023-06-22T02:49:58;68860.91;;;22.86;100.00
5988;BME280;3021;51.000;6.980;2023-06-22T02:52:23;68861.50;;;22.86;100.00
5988;BME280;3021;51.000;6.980;2023-06-22T02:54:49;68859.88;;;22.87;100.00
5988;BME280;3021;51.000;6.980;2023-06-22T02:57:14;68854.50;;;22.80;100.00
5988;BME280;3021;51.000;6.980;2023-06-22T02:59:40;68853.31;;;22.79;100.00
5988;BME280;3021;51.000;6.980;2023-06-22T03:02:07;68852.28;;;22.81;100.00
5988;BME280;3021;51.000;6.980;2023-06-22T03:04:33;68854.38;;;22.77;100.00
5988;BME280;3021;51.000;6.980;2023-06-22T03:06:59;68852.19;;;22.78;100.00
5988;BME280;3021;51.000;6.980;2023-06-22T03:09:26;68849.81;;;22.76;100.00
5988;BME280;3021;51.000;6.980;2023-06-22T03:11:53;68846.34;;;22.73;100.00
5988;BME280;3021;51.000;6.980;2023-06-22T03:14:19;68844.00;;;22.71;100.00
5988;BME280;3021;51.000;6.980;2023-06-22T03:16:44;68842.84;;;22.70;100.00
5988;BME280;3021;51.000;6.980;2023-06-22T03:19:10;68843.88;;;22.68;100.00
5988;BME280;3021;51.000;6.980;2023-06-22T03:21:37;68839.34;;;22.67;100.00
5988;BME280;3021;51.000;6.980;2023-06-22T03:24:04;68833.63;;;22.64;100.00
5988;BME280;3021;51.000;6.980;2023-06-22T03:26:29;68830.13;;;22.61;100.00
5988;BME280;3021;51.000;6.980;2023-06-22T03:28:55;68829.44;;;22.58;100.00
5988;BME280;3021;51.000;6.980;2023-06-22T03:31:20;68828.25;;;22.57;100.00
5988;BME280;3021;51.000;6.980;2023-06-22T03:33:47;68827.06;;;22.56;100.00
5988;BME280;3021;51.000;6.980;2023-06-22T03:36:13;68824.28;;;22.56;100.00
5988;BME280;3021;51.000;6.980;2023-06-22T03:38:39;68820.22;;;22.52;100.00
5988;BME280;3021;51.000;6.980;2023-06-22T03:41:04;68824.75;;;22.54;100.00
5988;BME280;3021;51.000;6.980;2023-06-22T03:43:29;68825.34;;;22.54;100.00
5988;BME280;3021;51.000;6.980;2023-06-22T03:45:55;68825.91;;;22.55;100.00
5988;BME280;3021;51.000;6.980;2023-06-22T03:48:20;68830.00;;;22.58;100.00
5988;BME280;3021;51.000;6.980;2023-06-22T03:50:45;68834.66;;;22.63;100.00
5988;BME280;3021;51.000;6.980;2023-06-22T03:53:10;68839.78;;;22.65;100.00
5988;BME280;3021;51.000;6.980;2023-06-22T03:55:36;68842.84;;;22.70;100.00
5988;BME280;3021;51.000;6.980;2023-06-22T03:58:01;68842.84;;;22.70;100.00
5988;BME280;3021;51.000;6.980;2023-06-22T04:00:31;68848.69;;;22.75;100.00
5988;BME280;3021;51.000;6.980;2023-06-22T04:02:57;68843.41;;;22.70;100.00
5988;BME280;3021;51.000;6.980;2023-06-22T04:05:22;68845.75;;;22.72;100.00
5988;BME280;3021;51.000;6.980;2023-06-22T04:07:48;68849.38;;;22.78;100.00
5988;BME280;3021;51.000;6.980;2023-06-22T04:10:13;68848.22;;;22.77;100.00
5988;BME280;3021;51.000;6.980;2023-06-22T04:12:38;68857.88;;;22.81;100.00
5988;BME280;3021;51.000;6.980;2023-06-22T04:15:04;68859.28;;;22.87;100.00
5988;BME280;3021;51.000;6.980;2023-06-22T04:17:30;68866.16;;;22.90;100.00
5988;BME280;3021;51.000;6.980;2023-06-22T04:19:55;68871.53;;;22.98;100.00
5988;BME280;3021;51.000;6.980;2023-06-22T04:22:20;68879.00;;;23.02;100.00
5988;BME280;3021;51.000;6.980;2023-06-22T04:24:46;68888.91;;;23.10;100.00
5988;BME280;3021;51.000;6.980;2023-06-22T04:27:11;68886.59;;;23.08;100.00
5988;BME280;3021;51.000;6.980;2023-06-22T04:29:37;68887.31;;;23.11;100.00
5988;BME280;3021;51.000;6.980;2023-06-22T04:32:03;68884.84;;;23.07;100.00
5988;BME280;3021;51.000;6.980;2023-06-22T04:34:30;68882.50;;;23.05;100.00
5988;BME280;3021;51.000;6.980;2023-06-22T04:36:56;68878.44;;;23.01;100.00
5988;BME280;3021;51.000;6.980;2023-06-22T04:39:21;68872.59;;;22.96;100.00
5988;BME280;3021;51.000;6.980;2023-06-22T04:41:47;68872.47;;;22.93;100.00
5988;BME280;3021;51.000;6.980;2023-06-22T04:46:38;68881.34;;;23.04;100.00
5988;BME280;3021;51.000;6.980;2023-06-22T04:49:08;68884.84;;;23.07;100.00
5988;BME280;3021;51.000;6.980;2023-06-22T04:51:41;68897.72;;;23.18;100.00
5988;BME280;3021;51.000;6.980;2023-06-22T04:54:08;68900.72;;;23.23;100.00
5988;BME280;3021;51.000;6.980;2023-06-22T04:56:34;68904.25;;;23.26;100.00
5988;BME280;3021;51.000;6.980;2023-06-22T04:59:00;68897.84;;;23.21;100.00
5988;BME280;3021;51.000;6.980;2023-06-22T05:01:25;68893.63;;;23.15;100.00
5988;BME280;3021;51.000;6.980;2023-06-22T05:03:51;68883.09;;;23.05;100.00
5988;BME280;3021;51.000;6.980;2023-06-22T05:06:21;68873.19;;;22.97;100.00
5988;BME280;3021;51.000;6.980;2023-06-22T05:08:46;68873.63;;;22.94;100.00
5988;BME280;3021;51.000;6.980;2023-06-22T05:11:12;68877.13;;;22.98;100.00
5988;BME280;3021;51.000;6.980;2023-06-22T05:13:37;68880.75;;;23.03;100.00
5988;BME280;3021;51.000;6.980;2023-06-22T05:16:03;68884.84;;;23.07;100.00
5988;BME280;3021;51.000;6.980;2023-06-22T05:18:29;68890.69;;;23.12;100.00
5988;BME280;3021;51.000;6.980;2023-06-22T05:20:55;68890.69;;;23.12;100.00
5988;BME280;3021;51.000;6.980;2023-06-22T05:23:20;68893.63;;;23.15;100.00
5988;BME280;3021;51.000;6.980;2023-06-22T05:25:45;68894.78;;;23.16;100.00
5988;BME280;3021;51.000;6.980;2023-06-22T05:28:11;68893.03;;;23.14;100.00
5988;BME280;3021;51.000;6.980;2023-06-22T05:30:37;68894.78;;;23.16;100.00
5988;BME280;3021;51.000;6.980;2023-06-22T05:33:03;68900.63;;;23.21;100.00
5988;BME280;3021;51.000;6.980;2023-06-22T05:35:28;68909.84;;;23.26;100.00
5988;BME280;3021;51.000;6.980;2023-06-22T05:37:54;68910.06;;;23.32;100.00
5988;BME280;3021;51.000;6.980;2023-06-22T05:40:20;68914.75;;;23.36;100.00
5988;BME280;3021;51.000;6.980;2023-06-22T05:42:45;68932.63;;;23.46;100.00
5988;BME280;3021;51.000;6.980;2023-06-22T05:45:11;68941.47;;;23.57;100.00
5988;BME280;3021;51.000;6.980;2023-06-22T05:47:36;68953.16;;;23.67;100.00
5988;BME280;3021;51.000;6.980;2023-06-22T05:50:01;68973.00;;;23.85;100.00
5988;BME280;3021;51.000;6.980;2023-06-22T05:52:31;68997.53;;;24.06;100.00
5988;BME280;3021;51.000;6.980;2023-06-22T05:54:56;69019.75;;;24.26;100.00
5988;BME280;3021;51.000;6.980;2023-06-22T05:57:22;69036.22;;;24.43;100.00
5988;BME280;3021;51.000;6.980;2023-06-22T05:59:47;69058.91;;;24.60;100.00
5988;BME280;3021;51.000;6.980;2023-06-22T06:02:12;69084.16;;;24.85;100.00
5988;BME280;3021;51.000;6.980;2023-06-22T06:04:38;69114.41;;;25.09;100.00
5988;BME280;3021;51.000;6.980;2023-06-22T06:07:03;69126.09;;;25.19;100.00
5988;BME280;3021;51.000;6.980;2023-06-22T06:09:29;69141.44;;;25.35;100.00
5988;BME280;3021;51.000;6.980;2023-06-22T06:11:54;69193.47;;;25.81;100.00
5988;BME280;3021;51.000;6.980;2023-06-22T06:14:19;69278.88;;;26.56;100.00
5988;BME280;3021;51.000;6.980;2023-06-22T06:16:45;69389.59;;;27.56;100.00
5988;BME280;3021;51.000;6.980;2023-06-22T06:19:10;69534.19;;;28.81;100.00
5988;BME280;3021;51.000;6.980;2023-06-22T06:21:36;69554.69;;;28.99;100.00
5988;BME280;3021;51.000;6.980;2023-06-22T06:24:01;69510.72;;;28.60;100.00
5988;BME280;3021;51.000;6.980;2023-06-22T06:26:27;69526.47;;;28.72;100.00
5988;BME280;3021;51.000;6.980;2023-06-22T06:28:58;69727.09;;;30.50;100.00
5988;BME280;3021;51.000;6.980;2023-06-22T06:31:24;69786.38;;;31.02;100.00
5988;BME280;3021;51.000;6.980;2023-06-22T06:33:49;69606.97;;;29.47;100.00
5988;BME280;3021;51.000;6.980;2023-06-22T06:36:15;69506.03;;;28.56;100.00
5988;BME280;3021;51.000;6.980;2023-06-22T06:38:41;69459.28;;;28.18;100.00
5988;BME280;3021;51.000;6.980;2023-06-22T06:41:07;69467.41;;;28.22;100.00
5988;BME280;3021;51.000;6.980;2023-06-22T06:43:32;69442.22;;;28.00;100.00
5988;BME280;3021;51.000;6.980;2023-06-22T06:45:57;69436.81;;;27.93;100.00
5988;BME280;3021;51.000;6.980;2023-06-22T06:48:23;69435.16;;;27.94;100.00
5988;BME280;3021;51.000;6.980;2023-06-22T06:50:48;69449.22;;;28.06;100.00
5988;BME280;3021;51.000;6.980;2023-06-22T06:53:13;69424.03;;;27.84;100.00
5988;BME280;3021;51.000;6.980;2023-06-22T06:55:39;69447.47;;;28.05;100.00
5988;BME280;3021;51.000;6.980;2023-06-22T06:58:04;69496.69;;;28.48;100.00
5988;BME280;3021;51.000;6.980;2023-06-22T07:00:32;69618.00;;;29.55;100.00
5988;BME280;3021;51.000;6.980;2023-06-22T07:02:58;69655.53;;;29.88;100.00
5988;BME280;3021;51.000;6.980;2023-06-22T07:05:23;69682.50;;;30.11;100.00
5988;BME280;3021;51.000;6.980;2023-06-22T07:07:48;69718.88;;;30.43;100.00
5988;BME280;3021;51.000;6.980;2023-06-22T07:10:14;69759.38;;;30.79;100.00
5988;BME280;3021;51.000;6.980;2023-06-22T07:12:40;69731.78;;;30.55;100.00
5988;BME280;3021;51.000;6.980;2023-06-22T07:15:08;69713.47;;;30.36;100.00
5988;BME280;3021;51.000;6.980;2023-06-22T07:17:33;69674.88;;;30.05;100.00
5988;BME280;3021;51.000;6.980;2023-06-22T07:19:59;69661.88;;;29.91;100.00
5988;BME280;3021;51.000;6.980;2023-06-22T07:22:24;69707.13;;;30.33;100.00
5988;BME280;3021;51.000;6.980;2023-06-22T07:24:50;69775.78;;;30.93;100.00
5988;BME280;3021;51.000;6.980;2023-06-22T07:27:15;69821.69;;;31.36;100.00
5988;BME280;3021;51.000;6.980;2023-06-22T07:29:44;69900.25;;;32.02;100.00
5988;BME280;3021;51.000;6.980;2023-06-22T07:32:09;69988.47;;;32.82;100.00
5988;BME280;3021;51.000;6.980;2023-06-22T07:34:35;69947.94;;;32.47;100.00
5988;BME280;3021;51.000;6.980;2023-06-22T07:37:00;69925.50;;;32.25;100.00
5988;BME280;3021;51.000;6.980;2023-06-22T07:39:26;69919.63;;;32.19;100.00
5988;BME280;3021;51.000;6.980;2023-06-22T07:41:52;69979.06;;;32.74;100.00
5988;BME280;3021;51.000;6.980;2023-06-22T07:44:17;70011.97;;;33.03;100.00
5988;BME280;3021;51.000;6.980;2023-06-22T07:46:42;69965.47;;;32.60;100.00
5988;BME280;3021;51.000;6.980;2023-06-22T07:49:08;69853.97;;;31.64;100.00
5988;BME280;3021;51.000;6.980;2023-06-22T07:51:34;69813.47;;;31.29;100.00
5988;BME280;3021;51.000;6.980;2023-06-22T07:53:59;69811.41;;;31.19;100.00
5988;BME280;3021;51.000;6.980;2023-06-22T07:56:24;69931.97;;;32.30;100.00
5988;BME280;3021;51.000;6.980;2023-06-22T07:58:50;70041.38;;;33.29;100.00
5988;BME280;3021;51.000;6.980;2023-06-22T08:01:15;70106.59;;;33.86;100.00
5988;BME280;3021;51.000;6.980;2023-06-22T08:03:41;70175.31;;;34.43;100.00
5988;BME280;3021;51.000;6.980;2023-06-22T08:06:07;70162.97;;;34.33;100.00
5988;BME280;3021;51.000;6.980;2023-06-22T08:08:35;70095.91;;;33.74;100.00
5988;BME280;3021;51.000;6.980;2023-06-22T08:11:00;70134.13;;;34.07;100.00
5988;BME280;3021;51.000;6.980;2023-06-22T08:13:26;70170.03;;;34.39;100.00
5988;BME280;3021;51.000;6.980;2023-06-22T08:15:51;70204.22;;;34.71;100.00
5988;BME280;3021;51.000;6.980;2023-06-22T08:18:16;70187.00;;;34.51;100.00
5988;BME280;3021;51.000;6.980;2023-06-22T08:20:42;70334.78;;;35.83;100.00
5988;BME280;3021;51.000;6.980;2023-06-22T08:23:07;70500.34;;;37.30;100.00
5988;BME280;3021;51.000;6.980;2023-06-22T08:25:34;70589.91;;;38.09;100.00
5988;BME280;3021;51.000;6.980;2023-06-22T08:28:00;70857.06;;;40.42;100.00
5988;BME280;3021;51.000;6.980;2023-06-22T08:30:25;70772.03;;;39.65;100.00
5988;BME280;3021;51.000;6.980;2023-06-22T08:32:51;70773.13;;;39.64;100.00
5988;BME280;3021;51.000;6.980;2023-06-22T08:35:16;70985.75;;;41.54;100.00
5988;BME280;3021;51.000;6.980;2023-06-22T08:37:42;71263.56;;;43.99;93.72
5988;BME280;3021;51.000;6.980;2023-06-22T08:40:09;71428.50;;;45.40;89.59
5988;BME280;3021;51.000;6.980;2023-06-22T08:42:35;71351.63;;;44.73;89.30
5988;BME280;3021;51.000;6.980;2023-06-22T08:45:01;71454.47;;;45.60;85.56
5988;BME280;3021;51.000;6.980;2023-06-22T08:47:29;71459.84;;;45.67;84.76
5988;BME280;3021;51.000;6.980;2023-06-22T08:49:55;71526.75;;;46.26;85.85
5988;BME280;3021;51.000;6.980;2023-06-22T08:52:20;71580.06;;;46.74;80.75
5988;BME280;3021;51.000;6.980;2023-06-22T08:54:46;71466.91;;;45.71;82.37
5988;BME280;3021;51.000;6.980;2023-06-22T08:57:12;71144.59;;;42.90;88.81
5988;BME280;3021;51.000;6.980;2023-06-22T08:59:38;70799.81;;;39.92;95.01
5988;BME280;3021;51.000;6.980;2023-06-22T09:02:03;70564.56;;;37.86;100.00
5988;BME280;3021;51.000;6.980;2023-06-22T09:04:28;70396.50;;;36.35;100.00
5988;BME280;3021;51.000;6.980;2023-06-22T09:06:54;70436.13;;;36.74;100.00
5988;BME280;3021;51.000;6.980;2023-06-22T09:09:21;70273.66;;;35.32;100.00
5988;BME280;3021;51.000;6.980;2023-06-22T09:11:46;70217.75;;;34.83;100.00
5988;BME280;3021;51.000;6.980;2023-06-22T09:14:12;70263.44;;;35.18;100.00
5988;BME280;3021;51.000;6.980;2023-06-22T09:16:37;70251.28;;;35.12;100.00
5988;BME280;3021;51.000;6.980;2023-06-22T09:19:03;70341.41;;;35.94;100.00
5988;BME280;3021;51.000;6.980;2023-06-22T09:21:28;70481.88;;;37.09;100.00
5988;BME280;3021;51.000;6.980;2023-06-22T09:23:54;70470.22;;;37.01;100.00
5988;BME280;3021;51.000;6.980;2023-06-22T09:26:20;70545.00;;;37.67;100.00
5988;BME280;3021;51.000;6.980;2023-06-22T09:28:46;70613.41;;;38.27;100.00
5988;BME280;3021;51.000;6.980;2023-06-22T09:31:12;70766.81;;;39.63;100.00
5988;BME280;3021;51.000;6.980;2023-06-22T09:33:39;70828.06;;;40.14;100.00
5988;BME280;3021;51.000;6.980;2023-06-22T09:36:05;70684.22;;;38.91;100.00
5988;BME280;3021;51.000;6.980;2023-06-22T09:38:37;70499.81;;;37.32;100.00
5988;BME280;3021;51.000;6.980;2023-06-22T09:41:02;70303.66;;;35.58;100.00
5988;BME280;3021;51.000;6.980;2023-06-22T09:43:27;70283.06;;;35.40;100.00
5988;BME280;3021;51.000;6.980;2023-06-22T09:45:53;70338.88;;;35.87;100.00
5988;BME280;3021;51.000;6.980;2023-06-22T09:48:18;70301.81;;;35.54;100.00
5988;BME280;3021;51.000;6.980;2023-06-22T09:50:44;70319.44;;;35.70;100.00
5988;BME280;3021;51.000;6.980;2023-06-22T09:53:09;70413.16;;;36.54;100.00
5988;BME280;3021;51.000;6.980;2023-06-22T09:55:34;70412.47;;;36.51;100.00
5988;BME280;3021;51.000;6.980;2023-06-22T09:58:00;70342.44;;;35.90;100.00
5988;BME280;3021;51.000;6.980;2023-06-22T10:00:25;70261.19;;;35.19;100.00
5988;BME280;3021;51.000;6.980;2023-06-22T10:02:51;70157.56;;;34.25;100.00
5988;BME280;3021;51.000;6.980;2023-06-22T10:05:17;70075.94;;;33.56;100.00
5988;BME280;3021;51.000;6.980;2023-06-22T10:07:42;69987.78;;;32.79;100.00
5988;BME280;3021;51.000;6.980;2023-06-22T10:10:11;69811.03;;;31.24;100.00
5988;BME280;3021;51.000;6.980;2023-06-22T10:12:41;69746.47;;;30.67;100.00
5988;BME280;3021;51.000;6.980;2023-06-22T10:15:07;69685.44;;;30.14;100.00
5988;BME280;3021;51.000;6.980;2023-06-22T10:17:33;69630.91;;;29.66;100.00
5988;BME280;3021;51.000;6.980;2023-06-22T10:19:58;69578.72;;;29.20;100.00
5988;BME280;3021;51.000;6.980;2023-06-22T10:22:23;69469.72;;;28.24;100.00
5988;BME280;3021;51.000;6.980;2023-06-22T10:24:49;69298.19;;;26.73;100.00
5988;BME280;3021;51.000;6.980;2023-06-22T10:27:14;69170.66;;;25.61;100.00
5988;BME280;3021;51.000;6.980;2023-06-22T10:29:41;69128.56;;;25.24;100.00
5988;BME280;3021;51.000;6.980;2023-06-22T10:32:06;69093.38;;;24.91;100.00
5988;BME280;3021;51.000;6.980;2023-06-22T10:34:32;69084.03;;;24.82;100.00
5988;BME280;3021;51.000;6.980;2023-06-22T10:36:57;69071.28;;;24.74;100.00
5988;BME280;3021;51.000;6.980;2023-06-22T10:39:22;69060.75;;;24.64;100.00
5988;BME280;3021;51.000;6.980;2023-06-22T10:41:48;69053.63;;;24.56;100.00
5988;BME280;3021;51.000;6.980;2023-06-22T10:44:13;69047.31;;;24.53;100.00
5988;BME280;3021;51.000;6.980;2023-06-22T10:46:39;69039.72;;;24.46;100.00
5988;BME280;3021;51.000;6.980;2023-06-22T10:49:04;69032.72;;;24.40;100.00
5988;BME280;3021;51.000;6.980;2023-06-22T10:51:29;69017.88;;;24.22;100.00
5988;BME280;3021;51.000;6.980;2023-06-22T10:53:56;69002.91;;;24.13;100.00
5988;BME280;3021;51.000;6.980;2023-06-22T10:56:22;68992.28;;;24.02;100.00
5988;BME280;3021;51.000;6.980;2023-06-22T10:58:47;68977.25;;;23.91;100.00
5988;BME280;3021;51.000;6.980;2023-06-22T11:01:12;68967.75;;;23.80;100.00
5988;BME280;3021;51.000;6.980;2023-06-22T11:03:38;68951.97;;;23.66;100.00
5988;BME280;3021;51.000;6.980;2023-06-22T11:06:03;68934.59;;;23.53;100.00
5988;BME280;3021;51.000;6.980;2023-06-22T11:08:28;68934.94;;;23.49;100.00
5988;BME280;3021;51.000;6.980;2023-06-22T11:10:54;68923.38;;;23.41;100.00
5988;BME280;3021;51.000;6.980;2023-06-22T11:13:19;68922.78;;;23.40;100.00
5988;BME280;3021;51.000;6.980;2023-06-22T11:15:45;68911.13;;;23.30;100.00
5988;BME280;3021;51.000;6.980;2023-06-22T11:18:10;68898.28;;;23.19;100.00
5988;BME280;3021;51.000;6.980;2023-06-22T11:20:35;68880.88;;;23.06;100.00
5988;BME280;3021;51.000;6.980;2023-06-22T11:23:04;68896.53;;;23.17;100.00
5988;BME280;3021;51.000;6.980;2023-06-22T11:25:30;68901.31;;;23.24;100.00
5988;BME280;3021;51.000;6.980;2023-06-22T11:27:56;68922.66;;;23.38;100.00
5988;BME280;3021;51.000;6.980;2023-06-22T11:30:21;68971.38;;;23.86;100.00
5988;BME280;3021;51.000;6.980;2023-06-22T11:32:47;69011.00;;;24.18;100.00
5988;BME280;3021;51.000;6.980;2023-06-22T11:35:13;69040.31;;;24.46;100.00
5988;BME280;3021;51.000;6.980;2023-06-22T11:37:38;69047.31;;;24.53;100.00
5988;BME280;3021;51.000;6.980;2023-06-22T11:40:04;69044.38;;;24.50;100.00
5988;BME280;3021;51.000;6.980;2023-06-22T11:42:30;69064.88;;;24.68;100.00
5988;BME280;3021;51.000;6.980;2023-06-22T11:44:55;69067.78;;;24.71;100.00
5988;BME280;3021;51.000;6.980;2023-06-22T11:47:21;69052.56;;;24.57;100.00
5988;BME280;3021;51.000;6.980;2023-06-22T11:49:46;69050.25;;;24.55;100.00
5988;BME280;3021;51.000;6.980;2023-06-22T11:52:12;69032.00;;;24.37;100.00
5988;BME280;3021;51.000;6.980;2023-06-22T11:54:37;69005.63;;;24.11;100.00
5988;BME280;3021;51.000;6.980;2023-06-22T11:57:04;69006.88;;;24.14;100.00
5988;BME280;3021;51.000;6.980;2023-06-22T11:59:29;69026.28;;;24.34;100.00
5988;BME280;3021;51.000;6.980;2023-06-22T12:01:54;69078.28;;;24.80;100.00
5988;BME280;3021;51.000;6.980;2023-06-22T12:04:20;69144.25;;;25.35;100.00
5988;BME280;3021;51.000;6.980;2023-06-22T12:06:45;69134.88;;;25.27;100.00
5988;BME280;3021;51.000;6.980;2023-06-22T12:09:11;69146.69;;;25.40;100.00
5988;BME280;3021;51.000;6.980;2023-06-22T12:11:38;69214.50;;;26.00;100.00
5988;BME280;3021;51.000;6.980;2023-06-22T12:14:04;69216.28;;;26.01;100.00
5988;BME280;3021;51.000;6.980;2023-06-22T12:16:29;69242.47;;;26.22;100.00
5988;BME280;3021;51.000;6.980;2023-06-22T12:18:55;69215.69;;;26.01;100.00
5988;BME280;3021;51.000;6.980;2023-06-22T12:21:20;69178.25;;;25.68;100.00
5988;BME280;3021;51.000;6.980;2023-06-22T12:23:45;69198.03;;;25.83;100.00
5988;BME280;3021;51.000;6.980;2023-06-22T12:26:11;69179.91;;;25.67;100.00
5988;BME280;3021;51.000;6.980;2023-06-22T12:28:36;69163.66;;;25.55;100.00
5988;BME280;3021;51.000;6.980;2023-06-22T12:31:01;69127.38;;;25.23;100.00
5988;BME280;3021;51.000;6.980;2023-06-22T12:33:27;69110.91;;;25.06;100.00
5988;BME280;3021;51.000;6.980;2023-06-22T12:35:52;69132.75;;;25.30;100.00
5988;BME280;3021;51.000;6.980;2023-06-22T12:38:17;69213.94;;;25.99;100.00
5988;BME280;3021;51.000;6.980;2023-06-22T12:40:42;69302.28;;;26.77;100.00
5988;BME280;3021;51.000;6.980;2023-06-22T12:43:08;69364.91;;;27.32;100.00
5988;BME280;3021;51.000;6.980;2023-06-22T12:45:33;69381.31;;;27.47;100.00
5988;BME280;3021;51.000;6.980;2023-06-22T12:48:00;69387.16;;;27.52;100.00
5988;BME280;3021;51.000;6.980;2023-06-22T12:50:25;69390.78;;;27.57;100.00
5988;BME280;3021;51.000;6.980;2023-06-22T12:52:50;69422.88;;;27.83;100.00
5988;BME280;3021;51.000;6.980;2023-06-22T12:55:16;69387.75;;;27.52;100.00
5988;BME280;3021;51.000;6.980;2023-06-22T12:57:41;69367.84;;;27.35;100.00
5988;BME280;3021;51.000;6.980;2023-06-22T13:00:07;69356.00;;;27.22;100.00
5988;BME280;3021;51.000;6.980;2023-06-22T13:02:35;69340.31;;;27.11;100.00
5988;BME280;3021;51.000;6.980;2023-06-22T13:05:01;69381.41;;;27.49;100.00
5988;BME280;3021;51.000;6.980;2023-06-22T13:07:27;69392.41;;;27.56;100.00
5988;BME280;3021;51.000;6.980;2023-06-22T13:09:52;69395.84;;;27.57;100.00
5988;BME280;3021;51.000;6.980;2023-06-22T13:12:17;69397.69;;;27.61;100.00